Time;durP1;ratioP1;P1;durP2;ratioP2;P2;SDS_P1;SDS_P2;PMS_P1;PMS_P2;Temp;Humidity;BMP_temperature;BMP_pressure;BME280_temperature;BME280_humidity;BME280_pressure;Samples;Min_cycle;Max_cycle;Signal;HPM_P1;HPM_P2
2022/03/27 00:00:29;;;;;;;35.33;19.88;;;12.90;42.30;;;;;;5054743;28;20066;-68
2022/03/27 00:02:55;;;;;;;39.78;21.08;;;12.90;42.40;;;;;;5054471;28;20033;-68
2022/03/27 00:05:20;;;;;;;34.50;20.30;;;12.90;42.60;;;;;;5054892;28;20025;-69
2022/03/27 00:07:46;;;;;;;42.90;20.92;;;12.90;42.50;;;;;;5054306;28;20029;-69
2022/03/27 00:10:12;;;;;;;39.60;21.70;;;12.90;42.30;;;;;;5054599;28;20029;-68
2022/03/27 00:12:38;;;;;;;35.90;22.63;;;12.80;42.30;;;;;;5054603;28;20037;-68
2022/03/27 00:15:05;;;;;;;39.63;22.95;;;12.80;42.20;;;;;;5053136;28;20230;-69
2022/03/27 00:17:33;;;;;;;35.45;21.75;;;12.80;42.20;;;;;;5053619;28;20025;-70
2022/03/27 00:20:03;;;;;;;41.33;22.88;;;12.70;42.40;;;;;;5053132;28;20017;-69
2022/03/27 00:22:29;;;;;;;35.83;21.80;;;12.70;42.50;;;;;;5053839;28;20043;-68
2022/03/27 00:24:56;;;;;;;39.47;22.90;;;12.70;42.60;;;;;;5053933;28;20033;-68
2022/03/27 00:27:21;;;;;;;37.13;22.65;;;12.70;42.80;;;;;;5054517;28;20106;-68
2022/03/27 00:29:47;;;;;;;38.75;21.80;;;12.70;42.90;;;;;;5053870;28;20029;-69
2022/03/27 00:32:13;;;;;;;33.80;21.85;;;12.70;43.40;;;;;;5053185;28;20033;-68
2022/03/27 00:34:38;;;;;;;38.58;21.30;;;12.70;43.70;;;;;;5054381;28;20036;-68
2022/03/27 00:37:04;;;;;;;36.47;21.63;;;12.60;44.10;;;;;;5053677;28;20029;-68
2022/03/27 00:39:30;;;;;;;38.00;22.17;;;12.60;44.20;;;;;;5054406;28;20021;-68
2022/03/27 00:41:56;;;;;;;37.35;23.45;;;12.60;44.40;;;;;;5053534;28;20029;-69
2022/03/27 00:44:21;;;;;;;36.92;22.48;;;12.50;44.40;;;;;;5053955;28;20478;-69
2022/03/27 00:46:47;;;;;;;35.00;22.15;;;12.50;44.60;;;;;;5053529;28;20029;-69
2022/03/27 00:49:12;;;;;;;40.63;23.85;;;12.50;44.70;;;;;;5054245;28;20025;-70
2022/03/27 00:51:38;;;;;;;37.70;23.63;;;12.50;44.80;;;;;;5053943;28;20029;-68
2022/03/27 00:54:05;;;;;;;36.33;24.13;;;12.40;44.90;;;;;;5053018;28;20025;-68
2022/03/27 00:56:31;;;;;;;40.25;25.67;;;12.50;44.70;;;;;;5054203;28;20083;-68
2022/03/27 00:58:56;;;;;;;45.67;25.92;;;12.40;44.70;;;;;;5053192;28;20107;-68
2022/03/27 01:01:31;;;;;;;44.38;24.70;;;12.40;44.70;;;;;;5053352;28;20036;-70
2022/03/27 01:03:58;;;;;;;42.22;25.75;;;12.40;44.80;;;;;;5052309;28;20338;-68
2022/03/27 01:06:35;;;;;;;43.58;26.67;;;12.40;45.00;;;;;;5053439;28;20040;-68
2022/03/27 01:11:48;;;;;;;39.75;25.83;;;12.30;45.10;;;;;;5051881;28;20041;-68
2022/03/27 01:14:20;;;;;;;45.85;27.40;;;12.30;45.30;;;;;;5052497;28;20033;-68
2022/03/27 01:17:08;;;;;;;47.83;27.15;;;12.30;45.30;;;;;;5052178;28;20108;-67
2022/03/27 01:19:34;;;;;;;45.55;26.73;;;12.30;45.20;;;;;;5052795;28;20428;-69
2022/03/27 01:22:00;;;;;;;51.60;27.52;;;12.30;45.10;;;;;;5052585;28;20068;-68
2022/03/27 01:24:26;;;;;;;44.17;27.48;;;12.30;45.10;;;;;;5053036;28;20040;-69
2022/03/27 01:26:52;;;;;;;42.83;27.20;;;12.30;45.10;;;;;;5051045;28;20029;-69
2022/03/27 01:29:18;;;;;;;47.33;28.95;;;12.30;45.10;;;;;;5051509;28;20122;-69
2022/03/27 01:31:44;;;;;;;46.65;28.88;;;12.30;45.00;;;;;;5052162;28;20064;-70
2022/03/27 01:34:10;;;;;;;50.45;29.50;;;12.30;45.00;;;;;;5051923;28;20083;-69
2022/03/27 01:36:36;;;;;;;48.38;28.15;;;12.20;45.00;;;;;;5052394;28;20025;-68
2022/03/27 01:39:09;;;;;;;40.53;28.58;;;12.20;45.10;;;;;;5052367;28;20270;-68
2022/03/27 01:41:36;;;;;;;47.83;29.48;;;12.20;45.30;;;;;;5052236;28;20037;-68
2022/03/27 01:44:03;;;;;;;47.05;29.25;;;12.20;45.50;;;;;;5051515;28;20091;-69
2022/03/27 01:46:33;;;;;;;45.92;28.88;;;12.20;45.60;;;;;;5052371;28;20033;-69
2022/03/27 01:49:04;;;;;;;47.27;29.00;;;12.20;45.60;;;;;;5051542;28;20112;-70
2022/03/27 01:51:30;;;;;;;46.58;28.92;;;12.20;45.80;;;;;;5052104;28;20450;-68
2022/03/27 01:53:56;;;;;;;46.13;29.20;;;12.20;45.80;;;;;;5051422;28;20485;-69
2022/03/27 01:56:23;;;;;;;47.00;28.63;;;12.20;45.90;;;;;;5052387;28;20081;-68
2022/03/27 01:58:48;;;;;;;50.28;28.33;;;12.20;46.00;;;;;;5051825;28;20454;-68
2022/03/27 02:01:15;;;;;;;51.97;28.10;;;12.20;46.00;;;;;;5051725;28;20035;-69
2022/03/27 02:03:41;;;;;;;47.50;27.80;;;12.20;46.00;;;;;;5052626;28;20524;-70
2022/03/27 02:06:07;;;;;;;43.83;28.00;;;12.20;46.10;;;;;;5052320;28;20029;-69
2022/03/27 02:08:36;;;;;;;45.47;28.52;;;12.10;46.10;;;;;;5052553;28;20021;-69
2022/03/27 02:11:02;;;;;;;45.30;27.67;;;12.20;46.20;;;;;;5051602;28;20536;-69
2022/03/27 02:13:29;;;;;;;46.42;28.73;;;12.20;46.30;;;;;;5052446;28;20075;-68
2022/03/27 02:15:57;;;;;;;43.65;28.77;;;12.20;46.40;;;;;;5051354;28;20078;-69
2022/03/27 02:18:26;;;;;;;42.15;29.50;;;12.20;46.40;;;;;;5052400;28;20036;-68
2022/03/27 02:20:52;;;;;;;45.38;29.20;;;12.20;46.50;;;;;;5051665;28;20032;-68
2022/03/27 02:23:18;;;;;;;45.47;29.25;;;12.20;47.00;;;;;;5052094;28;20120;-68
2022/03/27 02:25:43;;;;;;;46.42;28.20;;;12.20;46.60;;;;;;5051137;28;20540;-72
2022/03/27 02:28:09;;;;;;;41.20;26.33;;;12.20;46.60;;;;;;5050821;28;20031;-69
2022/03/27 02:30:35;;;;;;;44.78;27.67;;;12.20;46.80;;;;;;5052268;28;20025;-69
2022/03/27 02:33:01;;;;;;;39.40;24.13;;;12.20;47.00;;;;;;5051229;28;20064;-69
2022/03/27 02:35:27;;;;;;;33.50;21.55;;;12.30;47.30;;;;;;5050145;28;20432;-68
2022/03/27 02:37:53;;;;;;;32.83;19.58;;;12.30;48.30;;;;;;5050635;28;20025;-68
2022/03/27 02:40:19;;;;;;;28.70;18.58;;;12.30;49.20;;;;;;5051227;28;20029;-68
2022/03/27 02:42:44;;;;;;;32.13;19.25;;;12.40;50.30;;;;;;5050432;28;20371;-70
2022/03/27 02:45:10;;;;;;;31.85;18.75;;;12.40;50.90;;;;;;5051800;28;20024;-68
2022/03/27 02:47:36;;;;;;;30.95;18.23;;;12.40;51.10;;;;;;5051950;28;20363;-68
2022/03/27 02:50:04;;;;;;;32.72;19.15;;;12.40;51.10;;;;;;5050848;28;20039;-69
2022/03/27 02:52:30;;;;;;;27.98;17.60;;;12.40;51.30;;;;;;5051593;28;20025;-68
2022/03/27 02:54:57;;;;;;;25.50;18.25;;;12.40;51.30;;;;;;5050660;28;20088;-69
2022/03/27 02:57:23;;;;;;;26.83;18.52;;;12.40;51.10;;;;;;5052087;28;20051;-69
2022/03/27 02:59:51;;;;;;;31.00;18.92;;;12.40;51.20;;;;;;5051101;28;20033;-70
2022/03/27 03:02:17;;;;;;;29.35;18.80;;;12.40;51.30;;;;;;5051520;28;20033;-69
2022/03/27 03:04:42;;;;;;;33.60;19.90;;;12.40;51.60;;;;;;5051529;28;20033;-69
2022/03/27 03:07:08;;;;;;;33.83;19.85;;;12.40;51.50;;;;;;5051116;28;20028;-67
2022/03/27 03:09:34;;;;;;;31.77;18.75;;;12.40;51.70;;;;;;5051521;28;20040;-69
2022/03/27 03:12:00;;;;;;;30.27;20.25;;;12.30;51.60;;;;;;5050983;28;20359;-68
2022/03/27 03:14:26;;;;;;;31.98;20.15;;;12.30;51.70;;;;;;5050695;28;20477;-68
2022/03/27 03:16:53;;;;;;;29.33;18.67;;;12.30;52.20;;;;;;5050086;28;20029;-69
2022/03/27 03:19:19;;;;;;;29.17;17.98;;;12.30;52.80;;;;;;5050546;28;20056;-68
2022/03/27 03:22:03;;;;;;;27.50;17.38;;;12.20;53.10;;;;;;5050720;28;20061;-67
2022/03/27 03:24:30;;;;;;;21.95;15.60;;;12.20;54.70;;;;;;5051328;28;20036;-68
2022/03/27 03:26:56;;;;;;;23.90;15.23;;;12.20;56.50;;;;;;5050898;28;20029;-68
2022/03/27 03:29:22;;;;;;;21.90;14.85;;;12.20;56.80;;;;;;5051472;28;20029;-68
2022/03/27 03:31:49;;;;;;;18.42;12.70;;;12.20;58.10;;;;;;5050788;28;20021;-68
2022/03/27 03:34:14;;;;;;;23.58;13.85;;;12.20;59.90;;;;;;5051063;28;20051;-69
2022/03/27 03:36:41;;;;;;;17.40;13.27;;;12.20;61.10;;;;;;5051280;28;20354;-68
2022/03/27 03:39:07;;;;;;;15.90;12.35;;;12.20;61.50;;;;;;5050785;28;20461;-69
2022/03/27 03:41:33;;;;;;;17.88;11.18;;;12.20;62.40;;;;;;5051164;28;20389;-67
2022/03/27 03:43:58;;;;;;;16.20;11.30;;;12.20;63.10;;;;;;5050516;28;20033;-68
2022/03/27 03:46:24;;;;;;;15.52;11.15;;;12.20;64.20;;;;;;5051240;28;20033;-69
2022/03/27 03:48:50;;;;;;;16.58;11.85;;;12.20;64.30;;;;;;5050615;28;20035;-69
2022/03/27 03:51:16;;;;;;;18.17;10.85;;;12.20;64.90;;;;;;5050883;28;20029;-68
2022/03/27 03:53:42;;;;;;;15.93;11.15;;;12.20;65.10;;;;;;5051225;28;20028;-68
2022/03/27 03:56:08;;;;;;;17.08;11.93;;;12.20;65.40;;;;;;5050744;28;20064;-68
2022/03/27 03:58:33;;;;;;;18.85;11.07;;;12.20;65.60;;;;;;5051255;28;20086;-68
2022/03/27 04:00:59;;;;;;;15.40;10.90;;;12.20;65.80;;;;;;5050853;28;20458;-68
2022/03/27 04:03:24;;;;;;;18.63;10.82;;;12.10;66.30;;;;;;5051044;28;20112;-69
2022/03/27 04:05:50;;;;;;;14.05;9.73;;;12.10;67.20;;;;;;5050707;28;20104;-69
2022/03/27 04:08:16;;;;;;;12.07;9.77;;;12.00;67.50;;;;;;5054635;28;20421;-68
2022/03/27 04:11:01;;;;;;;12.70;9.82;;;12.00;67.60;;;;;;5055122;28;20047;-68
2022/03/27 04:13:26;;;;;;;13.25;8.88;;;12.00;68.40;;;;;;5054956;28;20029;-68
2022/03/27 04:15:52;;;;;;;13.60;9.38;;;11.90;68.60;;;;;;5052621;28;20355;-70
2022/03/27 04:18:18;;;;;;;18.15;10.07;;;11.90;69.60;;;;;;5054737;28;20025;-69
2022/03/27 04:20:43;;;;;;;10.90;8.20;;;11.90;69.90;;;;;;5054338;28;20114;-69
2022/03/27 04:23:09;;;;;;;10.63;8.80;;;11.90;69.60;;;;;;5053978;28;20083;-69
2022/03/27 04:25:35;;;;;;;11.77;7.95;;;11.90;69.40;;;;;;5053505;28;20386;-71
2022/03/27 04:28:08;;;;;;;13.70;9.43;;;11.80;69.90;;;;;;5052269;28;20033;-70
2022/03/27 04:30:35;;;;;;;16.45;8.82;;;11.90;70.00;;;;;;5053089;28;20392;-69
2022/03/27 04:33:01;;;;;;;12.43;8.95;;;11.80;69.80;;;;;;5053439;28;20051;-69
2022/03/27 04:35:26;;;;;;;10.80;8.70;;;11.90;69.80;;;;;;5053707;28;20219;-70
2022/03/27 04:37:52;;;;;;;12.45;9.38;;;11.80;69.80;;;;;;5053442;28;20025;-69
2022/03/27 04:40:18;;;;;;;12.18;10.02;;;11.80;69.40;;;;;;5053929;28;20028;-69
2022/03/27 04:42:45;;;;;;;13.45;9.73;;;11.80;69.70;;;;;;5053960;28;20033;-69
2022/03/27 04:45:11;;;;;;;12.18;9.90;;;11.80;69.60;;;;;;5053320;28;20025;-68
2022/03/27 04:47:38;;;;;;;13.38;9.77;;;11.80;69.60;;;;;;5054123;28;20427;-68
2022/03/27 04:50:05;;;;;;;12.57;9.85;;;11.80;69.30;;;;;;5053620;28;20528;-69
2022/03/27 04:52:31;;;;;;;12.32;9.70;;;11.90;69.20;;;;;;5053400;28;20496;-69
2022/03/27 04:54:57;;;;;;;16.92;9.90;;;11.90;69.00;;;;;;5052913;28;20053;-69
2022/03/27 04:57:23;;;;;;;12.00;9.85;;;11.90;69.20;;;;;;5054102;28;20119;-69
2022/03/27 04:59:48;;;;;;;14.18;9.70;;;11.90;69.30;;;;;;5054016;28;20091;-69
2022/03/27 05:02:14;;;;;;;12.95;9.80;;;11.90;69.20;;;;;;5053067;28;20045;-68
2022/03/27 05:04:41;;;;;;;14.98;10.48;;;11.90;69.30;;;;;;5053831;28;20057;-68
2022/03/27 05:07:25;;;;;;;14.70;9.82;;;11.80;69.30;;;;;;5053306;28;20025;-68
2022/03/27 05:09:51;;;;;;;11.88;9.82;;;11.90;69.60;;;;;;5053707;28;20434;-69
2022/03/27 05:12:17;;;;;;;13.70;9.20;;;11.80;69.60;;;;;;5050383;28;20032;-69
2022/03/27 05:14:43;;;;;;;11.90;9.48;;;11.80;69.90;;;;;;5053207;28;20432;-69
2022/03/27 05:17:09;;;;;;;11.98;9.73;;;11.80;69.80;;;;;;5051769;28;20021;-68
2022/03/27 05:19:35;;;;;;;10.73;9.25;;;11.80;69.90;;;;;;5053515;28;20381;-68
2022/03/27 05:22:00;;;;;;;13.25;9.55;;;11.80;70.10;;;;;;5052594;28;20036;-70
2022/03/27 05:24:28;;;;;;;11.05;9.63;;;11.80;70.00;;;;;;5052126;28;20036;-69
2022/03/27 05:26:54;;;;;;;13.73;9.35;;;11.80;70.10;;;;;;5052849;28;20032;-72
2022/03/27 05:29:21;;;;;;;13.80;9.50;;;11.90;69.70;;;;;;5053531;28;20465;-69
2022/03/27 05:31:47;;;;;;;13.38;9.43;;;11.90;68.70;;;;;;5053236;28;20128;-69
2022/03/27 05:34:31;;;;;;;12.32;10.05;;;11.90;68.30;;;;;;5052522;28;20130;-68
2022/03/27 05:36:56;;;;;;;13.18;9.63;;;11.90;68.30;;;;;;5052393;28;20040;-70
2022/03/27 05:39:41;;;;;;;12.82;9.60;;;11.90;68.20;;;;;;5052828;28;20025;-68
2022/03/27 05:42:07;;;;;;;11.23;9.75;;;11.90;67.90;;;;;;5052073;28;20040;-68
2022/03/27 05:44:33;;;;;;;15.40;11.52;;;11.90;67.40;;;;;;5051840;28;20098;-68
2022/03/27 05:46:59;;;;;;;13.02;9.63;;;11.90;67.40;;;;;;5052064;28;20470;-69
2022/03/27 05:49:24;;;;;;;14.38;9.50;;;11.90;67.20;;;;;;5053258;28;20055;-69
2022/03/27 05:51:50;;;;;;;14.82;9.48;;;11.90;66.40;;;;;;5053265;28;20466;-69
2022/03/27 05:54:15;;;;;;;12.35;8.98;;;11.90;66.10;;;;;;5050900;28;20466;-68
2022/03/27 05:56:41;;;;;;;14.85;9.48;;;11.90;65.50;;;;;;5050947;28;20045;-69
2022/03/27 05:59:07;;;;;;;12.27;8.52;;;11.90;64.60;;;;;;5052135;28;20225;-68
2022/03/27 06:01:32;;;;;;;13.40;8.13;;;11.90;64.30;;;;;;5052599;28;20029;-69
2022/03/27 06:03:58;;;;;;;9.85;8.10;;;11.90;63.50;;;;;;5052087;28;20457;-69
2022/03/27 06:06:23;;;;;;;12.25;8.52;;;11.90;63.10;;;;;;5052417;28;20117;-69
2022/03/27 06:08:50;;;;;;;9.68;8.13;;;11.90;63.00;;;;;;5052526;28;20100;-68
2022/03/27 06:11:15;;;;;;;13.13;8.63;;;11.90;63.00;;;;;;5051976;28;20025;-68
2022/03/27 06:13:41;;;;;;;11.07;8.90;;;11.90;63.00;;;;;;5052526;28;20028;-68
2022/03/27 06:16:07;;;;;;;11.60;8.65;;;11.90;63.30;;;;;;5051557;28;20021;-69
2022/03/27 06:18:32;;;;;;;15.23;9.57;;;11.90;63.70;;;;;;5052332;28;20480;-68
2022/03/27 06:20:58;;;;;;;11.55;8.75;;;11.90;63.70;;;;;;5051629;28;20021;-70
2022/03/27 06:23:24;;;;;;;10.63;8.13;;;11.90;63.80;;;;;;5052228;28;20047;-69
2022/03/27 06:25:49;;;;;;;12.93;9.30;;;11.90;63.70;;;;;;5052178;28;20037;-69
2022/03/27 06:28:15;;;;;;;16.05;9.27;;;11.90;63.60;;;;;;5051206;28;20389;-68
2022/03/27 06:30:41;;;;;;;13.98;9.45;;;11.90;63.40;;;;;;5051493;28;20033;-69
2022/03/27 06:33:06;;;;;;;11.80;9.20;;;11.90;63.50;;;;;;5051477;28;20100;-68
2022/03/27 06:35:33;;;;;;;14.73;9.55;;;11.90;63.40;;;;;;5052112;28;20032;-68
2022/03/27 06:37:59;;;;;;;15.68;9.50;;;11.90;63.40;;;;;;5051279;28;20036;-73
2022/03/27 06:40:25;;;;;;;12.38;9.93;;;11.90;63.10;;;;;;5051720;28;20029;-68
2022/03/27 06:42:51;;;;;;;13.35;10.13;;;11.90;63.20;;;;;;5052010;28;20471;-69
2022/03/27 06:45:18;;;;;;;15.23;10.27;;;11.90;63.00;;;;;;5051043;28;20473;-70
2022/03/27 06:47:45;;;;;;;11.80;9.35;;;11.90;62.60;;;;;;5051744;28;20060;-69
2022/03/27 06:50:11;;;;;;;13.77;10.23;;;11.90;61.90;;;;;;5051125;28;20063;-69
2022/03/27 06:52:37;;;;;;;11.80;10.23;;;11.90;61.30;;;;;;5051826;28;20039;-71
2022/03/27 06:55:05;;;;;;;15.40;9.63;;;12.00;61.50;;;;;;5051150;28;20041;-69
2022/03/27 06:57:32;;;;;;;14.13;9.25;;;12.00;60.80;;;;;;5051927;28;20061;-68
2022/03/27 07:05:26;;;;;;;14.82;9.90;;;12.00;60.50;;;;;;5051531;28;20036;-69
2022/03/27 07:07:52;;;;;;;16.10;10.98;;;12.00;60.50;;;;;;5051421;28;20029;-69
2022/03/27 07:10:19;;;;;;;15.60;9.82;;;12.10;60.70;;;;;;5051138;28;20021;-68
2022/03/27 07:12:45;;;;;;;13.15;10.25;;;12.10;60.30;;;;;;5051729;28;20098;-69
2022/03/27 07:15:12;;;;;;;14.73;9.70;;;12.20;60.10;;;;;;5051153;28;20377;-69
2022/03/27 07:17:48;;;;;;;11.25;9.20;;;12.10;59.10;;;;;;5051546;28;20082;-69
2022/03/27 07:20:26;;;;;;;13.30;9.50;;;12.20;59.50;;;;;;5050842;28;20033;-69
2022/03/27 07:22:53;;;;;;;12.68;9.63;;;12.20;59.10;;;;;;5051622;28;20033;-69
2022/03/27 07:25:24;;;;;;;14.45;9.55;;;12.20;59.30;;;;;;5050843;28;20075;-69
2022/03/27 07:27:49;;;;;;;14.95;10.02;;;12.20;59.50;;;;;;5050988;28;20029;-70
2022/03/27 07:30:15;;;;;;;12.85;9.60;;;12.30;59.60;;;;;;5051106;28;20025;-69
2022/03/27 07:32:41;;;;;;;13.23;9.20;;;12.30;59.10;;;;;;5050233;28;20033;-70
2022/03/27 07:35:09;;;;;;;14.18;9.85;;;12.30;59.00;;;;;;5050957;28;20086;-68
2022/03/27 07:37:35;;;;;;;12.77;9.32;;;12.30;58.40;;;;;;5051530;28;20120;-69
2022/03/27 07:40:03;;;;;;;12.27;9.70;;;12.30;58.40;;;;;;5050981;28;20025;-70
2022/03/27 07:42:30;;;;;;;13.40;9.32;;;12.40;58.50;;;;;;5055485;28;20116;-69
2022/03/27 07:44:56;;;;;;;14.88;9.70;;;12.40;58.40;;;;;;5055041;28;20155;-69
2022/03/27 07:47:22;;;;;;;11.15;9.13;;;12.50;58.60;;;;;;5057844;28;20568;-69
2022/03/27 07:49:47;;;;;;;13.40;9.60;;;12.60;58.50;;;;;;5055645;28;20029;-69
2022/03/27 07:52:13;;;;;;;12.05;9.73;;;12.70;58.20;;;;;;5066776;28;20028;-71
2022/03/27 07:54:39;;;;;;;14.70;10.20;;;12.80;57.90;;;;;;5068135;28;20057;-69
2022/03/27 07:57:05;;;;;;;14.73;10.05;;;12.80;57.70;;;;;;5055327;28;20033;-70
2022/03/27 07:59:31;;;;;;;15.35;10.27;;;12.90;56.90;;;;;;5055015;28;20027;-70
2022/03/27 08:01:57;;;;;;;12.55;9.35;;;12.90;56.60;;;;;;5054943;28;20037;-70
2022/03/27 08:04:23;;;;;;;15.38;11.07;;;12.90;57.10;;;;;;5054234;28;20461;-69
2022/03/27 08:06:51;;;;;;;12.52;10.00;;;12.90;56.70;;;;;;5055149;28;20033;-69
2022/03/27 08:09:16;;;;;;;13.02;9.80;;;12.90;56.90;;;;;;5060053;28;20028;-68
2022/03/27 08:11:42;;;;;;;10.85;9.25;;;13.00;57.10;;;;;;5073731;28;20035;-70
2022/03/27 08:14:09;;;;;;;13.77;10.60;;;13.00;57.60;;;;;;5073974;28;20028;-69
2022/03/27 08:16:36;;;;;;;14.95;10.13;;;13.20;57.00;;;;;;5074715;28;20119;-69
2022/03/27 08:19:02;;;;;;;15.13;10.30;;;13.20;56.10;;;;;;5075133;28;20025;-68
2022/03/27 08:21:28;;;;;;;17.50;10.43;;;13.20;56.40;;;;;;5063294;28;20477;-69
2022/03/27 08:23:54;;;;;;;16.23;10.57;;;13.20;56.70;;;;;;5054369;28;20470;-68
2022/03/27 08:29:04;;;;;;;13.60;10.93;;;13.30;58.10;;;;;;5054017;28;20070;-70
2022/03/27 08:31:31;;;;;;;15.73;11.20;;;13.40;57.30;;;;;;5054582;28;20029;-68
2022/03/27 08:33:57;;;;;;;13.98;10.82;;;13.50;57.90;;;;;;5053105;28;20025;-67
2022/03/27 08:36:23;;;;;;;15.48;10.85;;;13.50;56.80;;;;;;5054552;28;20049;-69
2022/03/27 08:38:49;;;;;;;14.50;11.52;;;13.60;56.70;;;;;;5054533;28;20037;-68
2022/03/27 08:41:16;;;;;;;13.95;10.85;;;13.70;56.70;;;;;;5053725;28;20036;-69
2022/03/27 08:43:43;;;;;;;15.48;11.13;;;13.70;56.40;;;;;;5053987;28;20032;-69
2022/03/27 08:46:09;;;;;;;13.15;11.55;;;13.70;56.20;;;;;;5053584;28;20360;-68
2022/03/27 08:48:37;;;;;;;15.45;10.82;;;13.80;55.50;;;;;;5054173;28;20021;-69
2022/03/27 08:51:25;;;;;;;15.00;11.27;;;13.80;55.20;;;;;;5053573;28;20032;-68
2022/03/27 08:54:01;;;;;;;13.27;10.27;;;13.70;54.60;;;;;;5053343;28;20033;-69
2022/03/27 08:56:29;;;;;;;14.57;10.57;;;13.80;55.60;;;;;;5054480;28;20052;-69
2022/03/27 08:58:57;;;;;;;12.15;9.88;;;13.80;55.90;;;;;;5053527;28;20025;-67
2022/03/27 09:01:23;;;;;;;13.90;10.05;;;13.90;55.40;;;;;;5054232;28;20458;-68
2022/03/27 09:03:49;;;;;;;15.10;10.90;;;14.00;55.80;;;;;;5053829;28;20040;-69
2022/03/27 09:06:14;;;;;;;14.18;10.82;;;14.10;55.40;;;;;;5053866;28;20466;-68
2022/03/27 09:08:40;;;;;;;14.10;10.07;;;14.10;54.40;;;;;;5054259;28;20040;-69
2022/03/27 09:11:06;;;;;;;12.57;9.68;;;14.20;54.50;;;;;;5053121;28;20381;-68
2022/03/27 09:13:32;;;;;;;15.57;10.98;;;14.20;53.80;;;;;;5053746;28;20021;-69
2022/03/27 09:16:03;;;;;;;12.43;9.98;;;14.20;53.90;;;;;;5052860;28;20037;-68
2022/03/27 09:18:41;;;;;;;;;;;14.30;54.10;;;;;;5054225;28;20025;-67
2022/03/27 09:21:07;;;;;;;18.40;11.65;;;14.30;53.60;;;;;;5052651;28;20315;-69
2022/03/27 09:23:35;;;;;;;17.40;11.55;;;14.40;53.50;;;;;;5053516;28;20037;-69
2022/03/27 09:26:04;;;;;;;14.73;10.60;;;14.40;53.40;;;;;;5053817;28;20037;-71
2022/03/27 09:28:31;;;;;;;17.63;10.18;;;14.50;53.60;;;;;;5058832;28;20052;-69
2022/03/27 09:31:02;;;;;;;13.10;11.25;;;14.50;53.70;;;;;;5072651;28;20020;-67
2022/03/27 09:33:37;;;;;;;13.25;10.82;;;14.50;53.00;;;;;;5062452;28;20036;-68
2022/03/27 09:36:11;;;;;;;14.45;11.95;;;14.50;52.70;;;;;;5052112;28;20044;-68
2022/03/27 09:38:38;;;;;;;14.43;11.45;;;14.60;52.70;;;;;;5052631;28;20029;-67
2022/03/27 09:41:05;;;;;;;17.10;11.20;;;14.70;52.20;;;;;;5052378;28;20037;-69
2022/03/27 09:43:30;;;;;;;17.02;12.20;;;14.80;52.40;;;;;;5052975;28;20063;-68
2022/03/27 09:46:03;;;;;;;15.38;11.77;;;14.90;51.60;;;;;;5052089;28;20041;-68
2022/03/27 09:48:29;;;;;;;15.75;12.10;;;15.00;51.80;;;;;;5052239;28;20029;-70
2022/03/27 09:50:59;;;;;;;14.98;12.20;;;15.10;51.20;;;;;;5055868;28;20454;-70
2022/03/27 09:53:28;;;;;;;13.52;11.15;;;15.20;51.50;;;;;;5053647;28;20032;-69
2022/03/27 09:55:59;;;;;;;14.15;11.75;;;15.30;50.60;;;;;;5064624;28;20047;-70
2022/03/27 09:58:45;;;;;;;14.90;11.77;;;15.50;50.40;;;;;;5072847;28;20033;-70
2022/03/27 10:01:22;;;;;;;15.63;12.05;;;15.60;49.60;;;;;;5072067;28;20044;-69
2022/03/27 10:04:13;;;;;;;15.55;12.15;;;15.70;50.10;;;;;;5069851;28;20081;-71
2022/03/27 10:06:40;;;;;;;12.77;11.23;;;15.80;50.10;;;;;;5050903;28;20020;-71
2022/03/27 10:09:10;;;;;;;15.05;11.15;;;15.90;49.60;;;;;;5051619;28;20021;-71
2022/03/27 10:11:38;;;;;;;14.63;11.40;;;16.00;49.10;;;;;;5051819;28;20055;-71
2022/03/27 10:14:06;;;;;;;14.35;12.32;;;16.00;48.20;;;;;;5048051;28;20270;-72
2022/03/27 10:16:43;;;;;;;15.65;12.52;;;16.10;48.30;;;;;;5054464;28;20039;-73
2022/03/27 10:19:27;;;;;;;15.45;11.77;;;16.10;48.00;;;;;;5068878;28;20377;-73
2022/03/27 10:21:54;;;;;;;16.02;12.40;;;16.20;48.00;;;;;;5062261;28;20043;-73
2022/03/27 10:24:25;;;;;;;15.45;11.38;;;16.20;47.80;;;;;;5061100;28;20390;-72
2022/03/27 10:26:55;;;;;;;15.77;11.48;;;16.30;48.00;;;;;;5052423;28;20351;-71
2022/03/27 10:29:22;;;;;;;15.73;11.57;;;16.40;48.20;;;;;;5051481;28;20489;-72
2022/03/27 10:31:48;;;;;;;13.55;10.82;;;16.50;47.40;;;;;;5051974;28;20033;-74
2022/03/27 10:34:14;;;;;;;14.45;11.48;;;16.60;48.20;;;;;;5051704;28;20037;-71
2022/03/27 10:36:40;;;;;;;13.85;10.88;;;16.70;47.70;;;;;;5052158;28;20450;-72
2022/03/27 10:39:25;;;;;;;15.35;10.85;;;16.80;47.70;;;;;;5051458;28;20075;-72
2022/03/27 10:42:25;;;;;;;12.43;10.82;;;16.90;47.50;;;;;;5052021;28;20373;-72
2022/03/27 10:45:00;;;;;;;15.82;11.57;;;17.00;47.00;;;;;;5052359;28;20095;-72
2022/03/27 10:47:29;;;;;;;13.85;10.93;;;17.00;46.60;;;;;;5051975;28;20460;-72
2022/03/27 10:50:01;;;;;;;14.93;12.52;;;17.10;46.50;;;;;;5052044;28;20369;-72
2022/03/27 10:52:36;;;;;;;15.68;11.82;;;17.10;46.20;;;;;;5051822;28;20037;-72
2022/03/27 10:55:11;;;;;;;17.00;12.57;;;17.10;46.40;;;;;;5050837;28;20079;-71
2022/03/27 10:57:45;;;;;;;16.45;12.10;;;17.00;46.30;;;;;;5051843;28;20029;-72
2022/03/27 11:00:13;;;;;;;14.40;12.52;;;17.00;46.80;;;;;;5051527;28;20036;-72
2022/03/27 11:02:53;;;;;;;19.17;14.32;;;17.10;47.10;;;;;;5050922;28;20040;-72
2022/03/27 11:05:36;;;;;;;19.88;14.93;;;17.10;46.80;;;;;;5051202;28;20029;-72
2022/03/27 11:08:17;;;;;;;16.25;11.68;;;17.20;47.30;;;;;;5050473;28;20476;-71
2022/03/27 11:10:50;;;;;;;12.97;11.40;;;17.20;46.30;;;;;;5051679;28;20056;-71
2022/03/27 11:13:33;;;;;;;15.88;11.75;;;17.20;46.50;;;;;;5050625;28;20025;-71
2022/03/27 11:16:05;;;;;;;14.02;11.40;;;17.20;46.40;;;;;;5060790;28;20489;-72
2022/03/27 11:18:39;;;;;;;14.63;10.27;;;17.20;46.30;;;;;;5052666;28;20130;-69
2022/03/27 11:21:07;;;;;;;13.55;10.95;;;17.10;46.50;;;;;;5051080;28;20029;-69
2022/03/27 11:23:37;;;;;;;13.07;10.88;;;17.20;46.60;;;;;;5050823;28;20400;-69
2022/03/27 11:26:05;;;;;;;14.80;11.15;;;17.10;46.60;;;;;;5049844;28;20499;-70
2022/03/27 11:28:46;;;;;;;13.45;9.55;;;17.10;46.30;;;;;;5051085;28;20075;-74
2022/03/27 11:31:11;;;;;;;15.35;11.05;;;17.10;46.90;;;;;;5048590;28;20051;-70
2022/03/27 11:33:40;;;;;;;12.30;10.40;;;17.20;46.30;;;;;;5050812;28;20029;-70
2022/03/27 11:36:09;;;;;;;19.25;10.57;;;17.10;46.30;;;;;;5050584;28;20104;-70
2022/03/27 11:38:52;;;;;;;12.68;10.13;;;17.20;46.50;;;;;;5050640;28;20105;-70
2022/03/27 11:41:26;;;;;;;11.68;10.30;;;17.20;46.50;;;;;;5047435;28;20119;-71
2022/03/27 11:43:53;;;;;;;11.70;10.32;;;17.20;46.40;;;;;;5050217;28;20052;-69
2022/03/27 11:46:27;;;;;;;11.77;10.15;;;17.20;46.50;;;;;;5049401;28;20060;-71
2022/03/27 11:48:54;;;;;;;11.73;9.82;;;17.30;47.10;;;;;;5049128;28;20021;-69
2022/03/27 11:51:19;;;;;;;13.25;10.40;;;17.30;46.30;;;;;;5049839;28;20021;-70
2022/03/27 11:53:45;;;;;;;17.88;9.82;;;17.40;46.30;;;;;;5049501;28;20029;-71
2022/03/27 11:56:11;;;;;;;11.50;8.77;;;17.50;46.70;;;;;;5050232;28;20335;-70
2022/03/27 11:58:38;;;;;;;12.25;7.63;;;17.60;46.00;;;;;;5051080;28;20029;-71
2022/03/27 12:01:08;;;;;;;10.20;7.57;;;17.70;45.80;;;;;;5050775;28;20033;-71
2022/03/27 12:03:35;;;;;;;10.70;7.72;;;17.80;46.20;;;;;;5050210;28;20037;-69
2022/03/27 12:06:09;;;;;;;11.75;7.57;;;17.90;45.20;;;;;;5050765;28;20029;-72
2022/03/27 12:08:39;;;;;;;17.50;8.38;;;18.00;44.90;;;;;;5050988;28;20044;-71
2022/03/27 12:11:07;;;;;;;16.15;7.57;;;18.00;46.20;;;;;;5050206;28;20033;-70
2022/03/27 12:13:40;;;;;;;9.70;7.93;;;18.00;45.50;;;;;;5049234;28;20036;-70
2022/03/27 12:16:14;;;;;;;9.60;8.20;;;18.00;44.80;;;;;;5049922;28;20170;-71
2022/03/27 12:18:40;;;;;;;9.32;7.57;;;18.10;44.70;;;;;;5050982;28;20036;-70
2022/03/27 12:21:12;;;;;;;9.07;7.35;;;18.10;44.40;;;;;;5049564;28;20488;-71
2022/03/27 12:23:55;;;;;;;11.93;8.07;;;18.10;44.60;;;;;;5054965;28;20037;-70
2022/03/27 12:32:06;;;;;;;14.45;8.10;;;18.10;44.20;;;;;;5044582;28;20480;-71
2022/03/27 12:34:33;;;;;;;9.02;7.03;;;18.00;44.50;;;;;;5074110;28;20116;-70
2022/03/27 12:37:26;;;;;;;8.10;7.10;;;18.00;44.80;;;;;;5073737;28;20036;-70
2022/03/27 12:39:51;;;;;;;10.40;6.07;;;17.90;45.20;;;;;;5072671;28;20060;-69
2022/03/27 12:42:36;;;;;;;9.43;6.75;;;17.90;45.30;;;;;;5072098;28;20067;-69
2022/03/27 12:45:06;;;;;;;9.52;6.53;;;17.90;45.40;;;;;;5066730;28;20021;-69
2022/03/27 12:47:43;;;;;;;7.45;6.15;;;17.90;45.30;;;;;;5053978;28;20442;-69
2022/03/27 12:50:15;;;;;;;12.52;6.93;;;17.90;45.40;;;;;;5053478;28;20052;-68
2022/03/27 12:53:06;;;;;;;;;;;17.80;45.70;;;;;;5054309;28;20025;-71